Terminal Aerodrome Forecast
Issued by NWS Cleveland, OH

Home | Current Version | Previous Version | Graphics & Text | Print | Product List | Glossary On
Versions: 1 2 3 4 5 6 7 8 9 10 11 12 13 14 15 16 17 18 19 20
667
FTUS41 KCLE 181720
TAFCLE
TAF
KCLE 181720Z 1818/1924 VRB04KT P6SM SCT030
     FM182300 05009KT P6SM -RA BKN030
     FM190200 03010KT 4SM -RA OVC008
     FM190600 01010G19KT 4SM -RASN OVC006
     FM190800 36014G24KT 4SM -SN OVC007
     FM191300 34018G30KT 6SM -SHSN OVC010=

USA.gov is the U.S. government's official web portal to all federal, state and local government web resources and services.